KQA601 HKJK-HKKI
Flight info
| Callsign | KQA601 |
|---|---|
| Flight time | 0h 33m |
| Altitude | 24000 |
| Route | ANTUK2D APKUB DCT NEVON NEVON1A |
| Aircraft | B738/M-SDE1E2E3FGHIJ2J3J4J5M1RWXYZ/LB1D1 |
Departure
| Time | 2026-04-14 04:30 |
|---|---|
| Airport | Jomo Kenyatta International Airport (HKJK) |
Arrival
| Time | 2026-04-14 05:04 |
|---|---|
| Airport | Kisumu International Airport (HKKI) |
| Time | Latitude | Longitude | Altitude | Speed | Heading |
|---|---|---|---|---|---|
| 2026-04-14 04:12 | -1.32940 | 36.92156 | 5323 ft | 0 kts | 285° |
| 2026-04-14 04:23 | -1.32943 | 36.92169 | 5316 ft | 3 kts | 285° |
| 2026-04-14 04:24 | -1.32949 | 36.92189 | 5319 ft | 3 kts | 285° |
| 2026-04-14 04:24 | -1.32953 | 36.92205 | 5314 ft | 3 kts | 288° |
| 2026-04-14 04:24 | -1.32961 | 36.92220 | 5313 ft | 3 kts | 327° |
| 2026-04-14 04:24 | -1.32977 | 36.92225 | 5316 ft | 3 kts | 9° |
| 2026-04-14 04:25 | -1.32991 | 36.92222 | 5319 ft | 1 kts | 15° |
| 2026-04-14 04:25 | -1.32995 | 36.92221 | 5320 ft | 1 kts | 15° |
| 2026-04-14 04:26 | -1.32995 | 36.92220 | 5320 ft | 0 kts | 15° |
| 2026-04-14 04:27 | -1.32992 | 36.92221 | 5319 ft | 3 kts | 15° |
| 2026-04-14 04:27 | -1.32940 | 36.92239 | 5322 ft | 13 kts | 26° |
| 2026-04-14 04:27 | -1.32834 | 36.92231 | 5317 ft | 21 kts | 324° |
| 2026-04-14 04:28 | -1.32820 | 36.92110 | 5327 ft | 23 kts | 232° |
| 2026-04-14 04:28 | -1.32933 | 36.91957 | 5332 ft | 31 kts | 234° |
| 2026-04-14 04:28 | -1.32965 | 36.91799 | 5335 ft | 24 kts | 312° |
| 2026-04-14 04:28 | -1.32846 | 36.91712 | 5340 ft | 13 kts | 324° |
| 2026-04-14 04:29 | -1.32838 | 36.91706 | 5335 ft | 0 kts | 324° |
| 2026-04-14 04:29 | -1.32831 | 36.91701 | 5335 ft | 6 kts | 324° |
| 2026-04-14 04:29 | -1.32748 | 36.91669 | 5337 ft | 18 kts | 16° |
| 2026-04-14 04:30 | -1.32574 | 36.91889 | 5322 ft | 74 kts | 54° |
| 2026-04-14 04:30 | -1.32141 | 36.92482 | 5315 ft | 135 kts | 53° |
| 2026-04-14 04:30 | -1.31480 | 36.93377 | 5335 ft | 183 kts | 53° |
| 2026-04-14 04:30 | -1.30719 | 36.94387 | 6131 ft | 176 kts | 53° |
| 2026-04-14 04:31 | -1.30042 | 36.95431 | 6732 ft | 192 kts | 70° |
| 2026-04-14 04:31 | -1.30064 | 36.96751 | 7173 ft | 202 kts | 112° |
| 2026-04-14 04:31 | -1.32745 | 36.98136 | 7497 ft | 256 kts | 182° |
| 2026-04-14 04:32 | -1.34443 | 36.97524 | 7886 ft | 271 kts | 216° |
| 2026-04-14 04:32 | -1.35539 | 36.95993 | 8382 ft | 277 kts | 252° |
| 2026-04-14 04:32 | -1.35866 | 36.94096 | 8933 ft | 279 kts | 263° |
| 2026-04-14 04:32 | -1.36162 | 36.92159 | 9446 ft | 283 kts | 259° |
| 2026-04-14 04:33 | -1.36570 | 36.90225 | 10012 ft | 286 kts | 257° |
| 2026-04-14 04:33 | -1.37048 | 36.88285 | 10515 ft | 290 kts | 255° |
| 2026-04-14 04:33 | -1.37568 | 36.86282 | 10780 ft | 308 kts | 255° |
| 2026-04-14 04:33 | -1.37801 | 36.84084 | 10895 ft | 333 kts | 278° |
| 2026-04-14 04:34 | -1.37154 | 36.81798 | 11157 ft | 351 kts | 292° |
| 2026-04-14 04:34 | -1.36237 | 36.79528 | 11656 ft | 360 kts | 294° |
| 2026-04-14 04:34 | -1.35260 | 36.77209 | 12181 ft | 363 kts | 294° |
| 2026-04-14 04:34 | -1.34263 | 36.74852 | 12249 ft | 365 kts | 294° |
| 2026-04-14 04:35 | -1.33283 | 36.72515 | 12264 ft | 365 kts | 294° |
| 2026-04-14 04:35 | -1.32311 | 36.70177 | 12261 ft | 364 kts | 293° |
| 2026-04-14 04:35 | -1.31361 | 36.67870 | 12254 ft | 364 kts | 293° |
| 2026-04-14 04:35 | -1.30403 | 36.65534 | 12269 ft | 365 kts | 293° |
| 2026-04-14 04:36 | -1.29431 | 36.63156 | 12728 ft | 371 kts | 293° |
| 2026-04-14 04:36 | -1.28455 | 36.60765 | 13503 ft | 371 kts | 293° |
| 2026-04-14 04:36 | -1.27480 | 36.58374 | 14183 ft | 373 kts | 293° |
| 2026-04-14 04:36 | -1.26497 | 36.55961 | 14790 ft | 376 kts | 293° |
| 2026-04-14 04:37 | -1.25505 | 36.53528 | 15365 ft | 380 kts | 293° |
| 2026-04-14 04:37 | -1.24503 | 36.51069 | 15910 ft | 384 kts | 293° |
| 2026-04-14 04:37 | -1.23495 | 36.48595 | 16485 ft | 387 kts | 293° |
| 2026-04-14 04:37 | -1.22473 | 36.46088 | 16867 ft | 395 kts | 293° |
| 2026-04-14 04:38 | -1.21431 | 36.43532 | 17171 ft | 399 kts | 292° |
| 2026-04-14 04:38 | -1.20390 | 36.40975 | 17900 ft | 396 kts | 292° |
| 2026-04-14 04:38 | -1.19354 | 36.38433 | 18517 ft | 397 kts | 292° |
| 2026-04-14 04:38 | -1.18305 | 36.35860 | 18967 ft | 401 kts | 292° |
| 2026-04-14 04:39 | -1.17246 | 36.33262 | 19415 ft | 404 kts | 292° |
| 2026-04-14 04:39 | -1.16181 | 36.30650 | 19867 ft | 407 kts | 292° |
| 2026-04-14 04:39 | -1.15113 | 36.28029 | 20146 ft | 409 kts | 292° |
| 2026-04-14 04:39 | -1.14041 | 36.25398 | 20159 ft | 407 kts | 292° |
| 2026-04-14 04:40 | -1.12978 | 36.22791 | 20166 ft | 405 kts | 292° |
| 2026-04-14 04:40 | -1.12262 | 36.21034 | 20173 ft | 406 kts | 292° |
| 2026-04-14 04:40 | -1.11192 | 36.18408 | 20175 ft | 406 kts | 292° |
| 2026-04-14 04:41 | -1.08872 | 36.13269 | 20174 ft | 410 kts | 304° |
| 2026-04-14 04:41 | -1.07252 | 36.10940 | 20176 ft | 417 kts | 307° |
| 2026-04-14 04:41 | -1.05516 | 36.08606 | 20176 ft | 418 kts | 308° |
| 2026-04-14 04:41 | -1.03747 | 36.06266 | 20170 ft | 416 kts | 308° |
| 2026-04-14 04:42 | -1.02037 | 36.03993 | 20168 ft | 415 kts | 308° |
| 2026-04-14 04:42 | -1.00319 | 36.01685 | 20174 ft | 414 kts | 307° |
| 2026-04-14 04:42 | -0.98605 | 35.99362 | 20166 ft | 414 kts | 307° |
| 2026-04-14 04:42 | -0.96906 | 35.97041 | 20163 ft | 414 kts | 307° |
| 2026-04-14 04:43 | -0.95211 | 35.94716 | 20178 ft | 414 kts | 307° |
| 2026-04-14 04:43 | -0.93517 | 35.92387 | 20181 ft | 414 kts | 307° |
| 2026-04-14 04:43 | -0.91822 | 35.90053 | 20186 ft | 415 kts | 307° |
| 2026-04-14 04:43 | -0.90127 | 35.87721 | 20179 ft | 415 kts | 307° |
| 2026-04-14 04:44 | -0.88426 | 35.85380 | 20162 ft | 416 kts | 307° |
| 2026-04-14 04:44 | -0.86729 | 35.83045 | 20169 ft | 416 kts | 307° |
| 2026-04-14 04:44 | -0.85027 | 35.80703 | 20165 ft | 416 kts | 307° |
| 2026-04-14 04:44 | -0.83327 | 35.78364 | 20162 ft | 416 kts | 307° |
| 2026-04-14 04:45 | -0.81629 | 35.76029 | 20176 ft | 416 kts | 307° |
| 2026-04-14 04:45 | -0.79926 | 35.73686 | 20169 ft | 416 kts | 307° |
| 2026-04-14 04:45 | -0.78225 | 35.71346 | 20159 ft | 416 kts | 307° |
| 2026-04-14 04:45 | -0.76526 | 35.69009 | 20153 ft | 416 kts | 307° |
| 2026-04-14 04:46 | -0.74829 | 35.66674 | 20154 ft | 416 kts | 307° |
| 2026-04-14 04:46 | -0.73132 | 35.64341 | 20148 ft | 416 kts | 307° |
| 2026-04-14 04:46 | -0.71439 | 35.62013 | 20032 ft | 408 kts | 307° |
| 2026-04-14 04:46 | -0.69784 | 35.59735 | 19617 ft | 405 kts | 307° |
| 2026-04-14 04:47 | -0.68128 | 35.57458 | 19022 ft | 406 kts | 307° |
| 2026-04-14 04:47 | -0.66463 | 35.55168 | 18440 ft | 407 kts | 307° |
| 2026-04-14 04:47 | -0.64805 | 35.52887 | 17924 ft | 404 kts | 307° |
| 2026-04-14 04:47 | -0.63159 | 35.50624 | 17467 ft | 400 kts | 307° |
| 2026-04-14 04:48 | -0.61534 | 35.48388 | 16995 ft | 396 kts | 307° |
| 2026-04-14 04:48 | -0.59922 | 35.46171 | 16514 ft | 393 kts | 307° |
| 2026-04-14 04:48 | -0.58324 | 35.43973 | 16036 ft | 390 kts | 307° |
| 2026-04-14 04:48 | -0.56734 | 35.41786 | 15577 ft | 387 kts | 307° |
| 2026-04-14 04:49 | -0.55160 | 35.39622 | 15119 ft | 384 kts | 307° |
| 2026-04-14 04:49 | -0.53598 | 35.37474 | 14682 ft | 381 kts | 307° |
| 2026-04-14 04:49 | -0.52044 | 35.35336 | 14247 ft | 378 kts | 307° |
| 2026-04-14 04:49 | -0.50504 | 35.33218 | 13799 ft | 376 kts | 307° |
| 2026-04-14 04:50 | -0.48974 | 35.31113 | 13310 ft | 373 kts | 307° |
| 2026-04-14 04:50 | -0.47455 | 35.29024 | 12848 ft | 370 kts | 307° |
| 2026-04-14 04:50 | -0.45953 | 35.26959 | 12405 ft | 367 kts | 308° |
| 2026-04-14 04:50 | -0.44457 | 35.24901 | 11942 ft | 365 kts | 308° |
| 2026-04-14 04:51 | -0.43147 | 35.22776 | 11445 ft | 365 kts | 293° |
| 2026-04-14 04:51 | -0.42455 | 35.20299 | 11057 ft | 363 kts | 285° |
| 2026-04-14 04:51 | -0.41897 | 35.17899 | 10809 ft | 353 kts | 284° |
| 2026-04-14 04:51 | -0.41360 | 35.15558 | 10549 ft | 340 kts | 284° |
| 2026-04-14 04:52 | -0.40835 | 35.13284 | 10316 ft | 332 kts | 285° |
| 2026-04-14 04:52 | -0.40315 | 35.11063 | 10074 ft | 326 kts | 285° |
| 2026-04-14 04:52 | -0.39793 | 35.08869 | 9849 ft | 322 kts | 285° |
| 2026-04-14 04:52 | -0.39280 | 35.06722 | 9576 ft | 313 kts | 285° |
| 2026-04-14 04:53 | -0.38781 | 35.04638 | 9321 ft | 303 kts | 285° |
| 2026-04-14 04:53 | -0.38296 | 35.02622 | 9095 ft | 293 kts | 285° |
| 2026-04-14 04:53 | -0.37828 | 35.00678 | 9036 ft | 285 kts | 285° |
| 2026-04-14 04:53 | -0.37364 | 34.98757 | 9036 ft | 284 kts | 285° |
| 2026-04-14 04:54 | -0.36899 | 34.96831 | 9048 ft | 289 kts | 285° |
| 2026-04-14 04:54 | -0.36426 | 34.94871 | 9030 ft | 290 kts | 285° |
| 2026-04-14 04:54 | -0.35955 | 34.92920 | 9019 ft | 288 kts | 285° |
| 2026-04-14 04:54 | -0.35490 | 34.90989 | 9018 ft | 285 kts | 285° |
| 2026-04-14 04:55 | -0.35026 | 34.89061 | 9014 ft | 284 kts | 285° |
| 2026-04-14 04:55 | -0.34565 | 34.87148 | 9019 ft | 283 kts | 285° |
| 2026-04-14 04:55 | -0.34103 | 34.85236 | 9015 ft | 283 kts | 285° |
| 2026-04-14 04:55 | -0.33641 | 34.83321 | 9012 ft | 284 kts | 285° |
| 2026-04-14 04:56 | -0.33179 | 34.81408 | 9017 ft | 285 kts | 285° |
| 2026-04-14 04:56 | -0.32714 | 34.79477 | 9003 ft | 286 kts | 285° |
| 2026-04-14 04:56 | -0.32248 | 34.77548 | 9015 ft | 287 kts | 285° |
| 2026-04-14 04:56 | -0.31780 | 34.75607 | 8995 ft | 288 kts | 285° |
| 2026-04-14 04:57 | -0.31300 | 34.73618 | 9032 ft | 306 kts | 285° |
| 2026-04-14 04:57 | -0.30795 | 34.71529 | 8998 ft | 309 kts | 285° |
| 2026-04-14 04:57 | -0.30298 | 34.69463 | 8978 ft | 303 kts | 285° |
| 2026-04-14 04:57 | -0.29812 | 34.67444 | 8985 ft | 295 kts | 285° |
| 2026-04-14 04:58 | -0.29340 | 34.65484 | 8973 ft | 286 kts | 285° |
| 2026-04-14 04:58 | -0.28880 | 34.63574 | 8983 ft | 280 kts | 285° |
| 2026-04-14 04:58 | -0.28423 | 34.61683 | 8983 ft | 281 kts | 285° |
| 2026-04-14 04:58 | -0.27866 | 34.59799 | 8976 ft | 284 kts | 299° |
| 2026-04-14 04:59 | -0.26639 | 34.58302 | 8854 ft | 280 kts | 326° |
| 2026-04-14 04:59 | -0.24902 | 34.57437 | 8475 ft | 279 kts | 341° |
| 2026-04-14 04:59 | -0.23098 | 34.56774 | 8330 ft | 268 kts | 341° |
| 2026-04-14 04:59 | -0.21403 | 34.56154 | 8242 ft | 252 kts | 342° |
| 2026-04-14 05:00 | -0.19762 | 34.55814 | 8113 ft | 233 kts | 5° |
| 2026-04-14 05:00 | -0.18277 | 34.56249 | 8013 ft | 215 kts | 30° |
| 2026-04-14 05:00 | -0.17153 | 34.57133 | 7898 ft | 200 kts | 49° |
| 2026-04-14 05:00 | -0.16376 | 34.58252 | 7496 ft | 202 kts | 58° |
| 2026-04-14 05:01 | -0.15658 | 34.59530 | 6823 ft | 217 kts | 62° |
| 2026-04-14 05:01 | -0.14943 | 34.60894 | 6195 ft | 223 kts | 63° |
| 2026-04-14 05:01 | -0.14245 | 34.62225 | 5830 ft | 208 kts | 62° |
| 2026-04-14 05:01 | -0.13602 | 34.63440 | 5567 ft | 191 kts | 63° |
| 2026-04-14 05:02 | -0.13013 | 34.64555 | 5313 ft | 174 kts | 63° |
| 2026-04-14 05:02 | -0.12470 | 34.65583 | 5111 ft | 159 kts | 63° |
| 2026-04-14 05:02 | -0.11972 | 34.66528 | 4938 ft | 150 kts | 62° |
| 2026-04-14 05:02 | -0.11480 | 34.67459 | 4696 ft | 153 kts | 62° |
| 2026-04-14 05:03 | -0.10984 | 34.68400 | 4476 ft | 154 kts | 62° |
| 2026-04-14 05:03 | -0.10487 | 34.69341 | 4252 ft | 153 kts | 62° |
| 2026-04-14 05:03 | -0.09997 | 34.70275 | 4100 ft | 153 kts | 63° |
| 2026-04-14 05:03 | -0.09495 | 34.71220 | 3818 ft | 153 kts | 61° |
| 2026-04-14 05:04 | -0.09005 | 34.72127 | 3760 ft | 140 kts | 63° |
| 2026-04-14 05:04 | -0.08672 | 34.72743 | 3759 ft | 49 kts | 62° |
| 2026-04-14 05:04 | -0.08585 | 34.72847 | 3758 ft | 14 kts | 355° |
| 2026-04-14 05:04 | -0.08494 | 34.72805 | 3756 ft | 15 kts | 344° |
| 2026-04-14 05:05 | -0.08426 | 34.72868 | 3757 ft | 13 kts | 63° |
| 2026-04-14 05:05 | -0.08373 | 34.72885 | 3750 ft | 9 kts | 330° |
| 2026-04-14 05:05 | -0.08315 | 34.72853 | 3750 ft | 6 kts | 334° |
| 2026-04-14 05:05 | -0.08280 | 34.72862 | 3754 ft | 3 kts | 59° |
| 2026-04-14 05:06 | -0.08265 | 34.72889 | 3757 ft | 5 kts | 61° |
| 2026-04-14 05:06 | -0.08262 | 34.72896 | 3754 ft | 0 kts | 63° |